McComb, Mississippi
Current Conditions -  °F | °C
As of 6:53 AM on Wednesday 22 Oct 2014 (Local Time) from KMCB Reporting Station
Clear Clear  
Wind Chill: 58°   Ceiling: Unl
Heat Index: 58°   Visibility: 10mi
Dew Point: 51°   Wind: 6mph
Humidity: 78%   Direction: 30°NNE
Pressure: 30.09"   Gusts: NA
Location:  31.25°N, 90.45°W
Report Text: KMCB 221153Z AUTO 03005KT 10SM CLR 14/11 A3009 RMK AO2 SLP185 T01440106 10167 20133 51013
Loading
Personal Weather Stations






























Interactive Weather Map
Tropical Storm Tracking
New forecast layout! Learn more

10-Day Weather Forecast

Advertisements
Track Severe Weather on mobile